Time;durP1;ratioP1;P1;durP2;ratioP2;P2;SDS_P1;SDS_P2;PMS_P1;PMS_P2;Temp;Humidity;BMP_temperature;BMP_pressure;BME280_temperature;BME280_humidity;BME280_pressure;Samples;Min_cycle;Max_cycle;Signal;HPM_P1;HPM_P2
2021/11/17 02:27:44;;;;;;;65.00;26.03;;;6.70;98.00;;;;;;5048931;28;20075;-74
2021/11/17 02:30:34;;;;;;;60.83;23.70;;;6.70;98.00;;;;;;5051440;28;20033;-73
2021/11/17 02:33:12;;;;;;;63.73;24.70;;;6.80;98.00;;;;;;5067728;28;20520;-73
2021/11/17 02:35:43;;;;;;;70.77;27.63;;;6.70;97.90;;;;;;5051899;28;20048;-74
2021/11/17 02:38:20;;;;;;;65.50;26.60;;;6.80;98.00;;;;;;5053297;28;20029;-73
2021/11/17 02:41:14;;;;;;;65.93;28.40;;;6.80;98.00;;;;;;5065605;28;20068;-74
2021/11/17 02:44:07;;;;;;;66.38;26.08;;;6.70;98.00;;;;;;5033649;28;20037;-75
2021/11/17 02:46:49;;;;;;;64.00;27.63;;;6.80;98.00;;;;;;5037242;28;20017;-75
2021/11/17 02:49:21;;;;;;;59.50;25.27;;;6.80;97.90;;;;;;5068816;28;20021;-74
2021/11/17 02:51:49;;;;;;;65.60;26.70;;;6.70;97.80;;;;;;5053160;28;20031;-74
2021/11/17 02:54:24;;;;;;;60.80;25.17;;;6.80;97.90;;;;;;5053272;28;20071;-75
2021/11/17 02:57:15;;;;;;;67.37;25.77;;;6.70;97.90;;;;;;5053218;28;20021;-74
2021/11/17 02:59:40;;;;;;;65.53;26.80;;;6.80;97.90;;;;;;5053053;28;20025;-75
2021/11/17 03:02:26;;;;;;;64.00;25.97;;;6.80;97.90;;;;;;5053004;28;20392;-74
2021/11/17 03:05:17;;;;;;;67.90;27.27;;;6.80;97.90;;;;;;5052056;28;20025;-75
2021/11/17 03:07:57;;;;;;;58.23;26.13;;;6.80;97.90;;;;;;5052001;28;20021;-75
2021/11/17 03:10:57;;;;;;;59.03;25.77;;;6.80;97.90;;;;;;5053094;28;20033;-75
2021/11/17 03:13:35;;;;;;;57.57;24.07;;;6.80;97.80;;;;;;5052151;28;20032;-75
2021/11/17 03:16:23;;;;;;;60.20;25.20;;;6.80;97.80;;;;;;5052808;28;20109;-75
2021/11/17 03:18:56;;;;;;;63.50;25.00;;;6.80;97.80;;;;;;5042643;28;20037;-75
2021/11/17 03:21:53;;;;;;;59.63;24.67;;;6.80;97.80;;;;;;5051736;28;20028;-76
2021/11/17 03:24:31;;;;;;;62.73;25.87;;;6.80;97.80;;;;;;5032771;28;20504;-75
2021/11/17 03:27:12;;;;;;;58.63;24.67;;;6.80;97.80;;;;;;5051624;28;20025;-75
2021/11/17 03:29:51;;;;;;;58.17;24.83;;;6.80;97.80;;;;;;5051545;28;20021;-75
2021/11/17 03:32:30;;;;;;;63.10;26.60;;;6.80;97.70;;;;;;5034966;28;20434;-75
2021/11/17 03:35:12;;;;;;;63.53;26.87;;;6.80;97.80;;;;;;5051296;28;20504;-75
2021/11/17 03:37:47;;;;;;;62.20;27.47;;;6.80;97.70;;;;;;5051632;28;20037;-76
2021/11/17 03:40:26;;;;;;;63.90;26.57;;;6.80;97.80;;;;;;5051406;28;20032;-75
2021/11/17 03:43:23;;;;;;;57.07;25.23;;;6.70;97.70;;;;;;5051623;28;20469;-75
2021/11/17 03:46:00;;;;;;;62.10;26.13;;;6.80;97.70;;;;;;5038068;28;20013;-75
2021/11/17 03:48:50;;;;;;;58.17;24.27;;;6.80;97.70;;;;;;5051189;28;20414;-75
2021/11/17 03:51:26;;;;;;;57.90;25.70;;;6.80;97.70;;;;;;5056205;28;20036;-76
2021/11/17 03:54:00;;;;;;;58.73;24.93;;;6.80;97.70;;;;;;5056601;28;20127;-75
2021/11/17 03:56:50;;;;;;;63.07;27.13;;;6.80;97.70;;;;;;5055207;28;20128;-75
2021/11/17 03:59:40;;;;;;;64.27;26.17;;;6.80;97.70;;;;;;5056454;28;20025;-75
2021/11/17 04:02:32;;;;;;;60.97;27.13;;;6.80;97.70;;;;;;5088778;28;20075;-76
2021/11/17 04:05:32;;;;;;;60.27;25.70;;;6.80;97.70;;;;;;5056072;28;20021;-75
2021/11/17 04:08:21;;;;;;;56.63;23.10;;;6.80;97.70;;;;;;5056189;28;20021;-75
2021/11/17 04:11:03;;;;;;;59.77;24.97;;;6.90;97.70;;;;;;5056137;28;20033;-76
2021/11/17 04:13:46;;;;;;;62.80;26.00;;;6.90;97.70;;;;;;5054923;28;20509;-75
2021/11/17 04:16:49;;;;;;;65.33;26.83;;;6.80;97.70;;;;;;5086269;28;20025;-75
2021/11/17 04:19:18;;;;;;;66.63;28.80;;;6.90;97.80;;;;;;5088415;28;20083;-75
2021/11/17 04:22:31;;;;;;;56.27;24.40;;;6.90;97.80;;;;;;5054464;28;20079;-75
2021/11/17 04:25:26;;;;;;;65.10;25.83;;;6.90;97.80;;;;;;5068434;28;20465;-75
2021/11/17 04:28:16;;;;;;;62.05;26.90;;;6.90;97.70;;;;;;5054787;28;20152;-76
2021/11/17 04:31:12;;;;;;;58.87;24.30;;;6.90;97.70;;;;;;5071339;28;20029;-75
2021/11/17 04:33:52;;;;;;;57.33;24.40;;;6.90;97.70;;;;;;5088073;28;20092;-75
2021/11/17 04:36:45;;;;;;;62.47;24.43;;;6.90;97.70;;;;;;5055838;28;20033;-75
2021/11/17 04:39:32;;;;;;;63.27;26.50;;;6.90;97.70;;;;;;5054830;28;20028;-75
2021/11/17 04:42:07;;;;;;;59.60;24.63;;;6.90;97.70;;;;;;5055691;28;20033;-76
2021/11/17 04:44:59;;;;;;;60.63;24.83;;;6.90;97.70;;;;;;5054583;28;20025;-75
2021/11/17 04:47:36;;;;;;;59.70;26.10;;;7.00;97.80;;;;;;5054580;28;20070;-76
2021/11/17 04:50:41;;;;;;;60.17;25.13;;;7.00;97.80;;;;;;5071269;28;20025;-75
2021/11/17 04:53:13;;;;;;;57.42;24.88;;;7.00;97.70;;;;;;5055204;28;20044;-75
2021/11/17 04:56:08;;;;;;;65.97;26.30;;;7.00;97.80;;;;;;5053425;28;20033;-75
2021/11/17 04:59:04;;;;;;;61.17;24.65;;;7.00;97.80;;;;;;5035549;28;20105;-75
2021/11/17 05:01:39;;;;;;;61.63;26.30;;;7.00;97.80;;;;;;5035386;28;20029;-75
2021/11/17 05:04:04;;;;;;;58.33;23.70;;;7.00;97.80;;;;;;5035499;28;20030;-76
2021/11/17 05:06:39;;;;;;;60.70;24.00;;;7.00;97.80;;;;;;5035340;28;20044;-75
2021/11/17 05:09:32;;;;;;;64.07;26.07;;;7.00;97.70;;;;;;5044591;28;20074;-75
2021/11/17 05:12:31;;;;;;;61.37;25.03;;;7.00;97.80;;;;;;5053823;28;20419;-75
2021/11/17 05:15:09;;;;;;;60.10;23.90;;;7.00;97.70;;;;;;5054126;28;20033;-74
2021/11/17 05:18:26;;;;;;;61.63;24.50;;;6.80;97.70;;;;;;5055021;28;20032;-75
2021/11/17 05:20:58;;;;;;;61.07;24.77;;;6.90;97.70;;;;;;5053916;28;20025;-75
2021/11/17 05:23:23;;;;;;;61.63;25.47;;;6.90;98.00;;;;;;5053721;28;20381;-75
2021/11/17 05:26:01;;;;;;;60.53;25.07;;;6.90;97.70;;;;;;5054728;28;20021;-75
2021/11/17 05:28:52;;;;;;;60.00;24.53;;;6.90;97.80;;;;;;5054894;28;20021;-75
2021/11/17 05:31:36;;;;;;;60.40;23.93;;;6.80;97.70;;;;;;5067596;28;20397;-76
2021/11/17 05:34:16;;;;;;;58.40;24.73;;;6.80;97.70;;;;;;5084207;28;20120;-76
2021/11/17 05:37:01;;;;;;;66.20;25.70;;;6.80;97.70;;;;;;5069905;28;20028;-75
2021/11/17 05:39:36;;;;;;;55.93;24.37;;;6.80;97.70;;;;;;5086862;28;20040;-76
2021/11/17 05:42:14;;;;;;;60.03;24.17;;;6.80;97.80;;;;;;5086575;28;20029;-76
2021/11/17 05:45:12;;;;;;;59.30;22.87;;;6.80;97.80;;;;;;5086704;28;20428;-76
2021/11/17 05:47:59;;;;;;;62.03;25.57;;;6.80;97.80;;;;;;5052828;28;20025;-76
2021/11/17 05:50:47;;;;;;;57.97;23.30;;;6.80;97.90;;;;;;5054525;28;20064;-76
2021/11/17 05:53:28;;;;;;;67.10;23.60;;;6.80;97.90;;;;;;5054179;28;20029;-76
2021/11/17 05:56:25;;;;;;;61.23;22.77;;;6.80;97.90;;;;;;5054194;28;20077;-76
2021/11/17 05:59:13;;;;;;;61.40;24.20;;;6.90;97.90;;;;;;5053827;28;20053;-76
2021/11/17 06:02:00;;;;;;;59.23;23.63;;;6.90;97.90;;;;;;5054030;28;20029;-76
2021/11/17 06:04:25;;;;;;;53.37;22.27;;;6.90;97.90;;;;;;5069580;28;20028;-76
2021/11/17 06:06:51;;;;;;;56.90;23.07;;;6.90;97.90;;;;;;5050638;28;20017;-76
2021/11/17 06:09:17;;;;;;;62.90;24.83;;;6.90;97.90;;;;;;5042911;28;20092;-76
2021/11/17 06:11:50;;;;;;;54.20;21.50;;;6.90;97.90;;;;;;5033181;28;20026;-76
2021/11/17 06:14:30;;;;;;;61.37;25.07;;;7.00;97.90;;;;;;5043471;28;20025;-76
2021/11/17 06:17:06;;;;;;;61.43;23.10;;;7.00;97.90;;;;;;5052827;28;20028;-76
2021/11/17 06:19:37;;;;;;;53.07;22.30;;;7.00;97.90;;;;;;5042115;28;20028;-76
2021/11/17 06:22:05;;;;;;;59.37;24.83;;;7.00;98.00;;;;;;5047399;28;20086;-75
2021/11/17 06:24:32;;;;;;;56.93;23.23;;;7.00;98.00;;;;;;5043932;28;20017;-75
2021/11/17 06:26:58;;;;;;;54.20;21.17;;;7.00;98.00;;;;;;5045297;28;20094;-75
2021/11/17 06:29:29;;;;;;;57.70;23.00;;;7.10;98.00;;;;;;5051108;28;20048;-75
2021/11/17 06:31:57;;;;;;;61.20;23.37;;;7.10;98.00;;;;;;5047790;28;20116;-75
2021/11/17 06:34:38;;;;;;;54.90;23.20;;;7.10;98.00;;;;;;5042066;28;20175;-76
2021/11/17 06:37:07;;;;;;;55.03;22.40;;;7.10;98.00;;;;;;5056834;28;20543;-76
2021/11/17 06:39:36;;;;;;;59.10;22.57;;;7.10;98.00;;;;;;5053300;28;20037;-76
2021/11/17 06:42:04;;;;;;;54.37;23.00;;;7.20;98.00;;;;;;5051117;28;20032;-76
2021/11/17 06:44:30;;;;;;;53.57;21.77;;;7.20;98.00;;;;;;5051689;28;20021;-74
2021/11/17 06:46:56;;;;;;;58.83;24.20;;;7.20;98.00;;;;;;5085068;28;20033;-76
2021/11/17 06:49:22;;;;;;;63.03;25.73;;;7.20;98.00;;;;;;5053600;28;20025;-75
2021/11/17 06:51:47;;;;;;;56.83;23.17;;;7.20;98.00;;;;;;5074551;28;20028;-75
2021/11/17 06:54:13;;;;;;;52.53;23.10;;;7.20;97.90;;;;;;5084917;28;20040;-75
2021/11/17 06:56:39;;;;;;;60.03;24.00;;;7.20;97.90;;;;;;5046940;28;20036;-75
2021/11/17 06:59:04;;;;;;;63.63;23.97;;;7.20;98.20;;;;;;5053314;28;20044;-74
2021/11/17 07:01:30;;;;;;;56.43;22.83;;;7.30;98.00;;;;;;5052801;28;20094;-75
2021/11/17 07:03:57;;;;;;;52.90;22.40;;;7.30;97.90;;;;;;5053089;28;20473;-75
2021/11/17 07:06:23;;;;;;;56.57;23.70;;;7.30;97.90;;;;;;5052912;28;20091;-73
2021/11/17 07:08:49;;;;;;;53.77;20.93;;;7.40;98.00;;;;;;5050609;28;20033;-73
2021/11/17 07:11:15;;;;;;;59.10;23.73;;;7.30;97.90;;;;;;5051141;28;20469;-72
2021/11/17 07:13:41;;;;;;;60.63;24.10;;;7.40;97.90;;;;;;5051887;28;20033;-73
2021/11/17 07:16:06;;;;;;;64.20;25.07;;;7.40;97.90;;;;;;5052675;28;20052;-75
2021/11/17 07:18:34;;;;;;;55.30;22.77;;;7.40;98.00;;;;;;5052609;28;20033;-74
2021/11/17 07:21:00;;;;;;;55.63;22.80;;;7.40;97.90;;;;;;5034693;28;20480;-74
2021/11/17 07:23:26;;;;;;;60.37;23.33;;;7.40;98.20;;;;;;5051282;28;20029;-71
2021/11/17 07:25:51;;;;;;;58.87;25.23;;;7.40;97.90;;;;;;5054274;28;20029;-71
2021/11/17 07:28:17;;;;;;;56.70;24.20;;;7.40;97.90;;;;;;5055535;28;20033;-72
2021/11/17 07:30:43;;;;;;;53.67;22.10;;;7.40;97.90;;;;;;5055565;28;20025;-71
2021/11/17 07:33:09;;;;;;;60.53;24.87;;;7.40;97.90;;;;;;5055362;28;20044;-72
2021/11/17 07:35:37;;;;;;;56.03;22.77;;;7.50;98.00;;;;;;5056596;28;20061;-72
2021/11/17 07:38:06;;;;;;;63.57;26.83;;;7.50;98.00;;;;;;5056765;28;20028;-73
2021/11/17 07:40:35;;;;;;;62.67;24.43;;;7.50;98.00;;;;;;5055374;28;20029;-73
2021/11/17 07:43:06;;;;;;;60.63;25.67;;;7.50;98.00;;;;;;5055557;28;20025;-73
2021/11/17 07:45:32;;;;;;;63.87;24.63;;;7.50;98.00;;;;;;5056561;28;20076;-72
2021/11/17 07:47:58;;;;;;;64.80;25.73;;;7.50;98.00;;;;;;5056631;28;20033;-73
2021/11/17 07:50:24;;;;;;;62.10;24.77;;;7.50;98.00;;;;;;5056608;28;20029;-73
2021/11/17 07:52:50;;;;;;;62.67;24.97;;;7.50;98.00;;;;;;5056589;28;20358;-73
2021/11/17 07:55:17;;;;;;;61.77;24.63;;;7.60;98.00;;;;;;5056474;28;20044;-73
2021/11/17 07:57:47;;;;;;;63.73;25.70;;;7.60;98.00;;;;;;5055074;28;20497;-73
2021/11/17 08:00:20;;;;;;;67.53;26.80;;;7.50;98.00;;;;;;5056665;28;20021;-74
2021/11/17 08:02:46;;;;;;;61.37;25.43;;;7.50;98.10;;;;;;5055119;28;20017;-73
2021/11/17 08:05:12;;;;;;;67.40;25.20;;;7.60;98.10;;;;;;5056303;28;20103;-73
2021/11/17 08:07:39;;;;;;;60.03;24.07;;;7.60;98.10;;;;;;5056340;28;20021;-73
2021/11/17 08:10:09;;;;;;;60.20;23.80;;;7.60;98.10;;;;;;5056304;28;20025;-73
2021/11/17 08:12:35;;;;;;;66.67;25.73;;;7.60;98.10;;;;;;5056346;28;20025;-72
2021/11/17 08:15:01;;;;;;;63.03;26.77;;;7.70;98.20;;;;;;5055049;28;20379;-72
2021/11/17 08:17:26;;;;;;;62.00;26.03;;;7.70;98.20;;;;;;5056123;28;20025;-72
2021/11/17 08:19:52;;;;;;;65.97;25.70;;;7.70;98.20;;;;;;5054759;28;20033;-73
2021/11/17 08:22:17;;;;;;;72.77;28.67;;;7.70;98.30;;;;;;5056033;28;20033;-73
2021/11/17 08:24:44;;;;;;;64.83;25.43;;;7.80;98.30;;;;;;5056005;28;20061;-72
2021/11/17 08:27:18;;;;;;;64.03;24.23;;;7.80;98.30;;;;;;5055398;28;20028;-72
2021/11/17 08:29:48;;;;;;;69.43;28.40;;;7.90;98.40;;;;;;5054427;28;20226;-72
2021/11/17 08:32:14;;;;;;;76.57;29.13;;;8.00;98.30;;;;;;5056054;28;20025;-72
2021/11/17 08:34:39;;;;;;;67.80;27.93;;;7.90;98.30;;;;;;5054538;28;20057;-71
2021/11/17 08:37:06;;;;;;;68.40;29.37;;;7.90;98.30;;;;;;5055556;28;20033;-72
2021/11/17 08:39:31;;;;;;;70.63;26.13;;;8.00;98.30;;;;;;5054698;28;20037;-71
2021/11/17 08:41:57;;;;;;;72.07;30.13;;;7.90;98.40;;;;;;5054534;28;20032;-71
2021/11/17 08:44:23;;;;;;;73.00;28.77;;;8.00;98.40;;;;;;5053745;28;20150;-71
2021/11/17 08:46:49;;;;;;;74.80;31.43;;;8.00;98.40;;;;;;5055160;28;20029;-73
2021/11/17 08:49:14;;;;;;;67.97;28.07;;;8.00;98.40;;;;;;5053950;28;20032;-73
2021/11/17 08:51:42;;;;;;;77.13;30.80;;;8.00;98.40;;;;;;5052835;28;20382;-73
2021/11/17 08:54:07;;;;;;;79.30;30.33;;;8.00;98.50;;;;;;5053204;28;20029;-73
2021/11/17 08:56:35;;;;;;;75.87;30.20;;;8.00;98.50;;;;;;5054884;28;20079;-73
2021/11/17 08:59:02;;;;;;;73.47;30.37;;;8.10;98.60;;;;;;5054719;28;20032;-73
2021/11/17 09:01:29;;;;;;;89.30;32.87;;;8.20;98.60;;;;;;5053715;28;20029;-73
2021/11/17 09:03:55;;;;;;;87.53;32.00;;;8.20;98.60;;;;;;5054922;28;20102;-73
2021/11/17 09:06:21;;;;;;;75.97;30.40;;;8.30;98.60;;;;;;5037036;28;20024;-73
2021/11/17 09:08:46;;;;;;;76.47;30.73;;;8.30;98.60;;;;;;5053653;28;20021;-73
2021/11/17 09:11:16;;;;;;;77.83;30.20;;;8.30;98.60;;;;;;5053650;28;20049;-73
2021/11/17 09:13:43;;;;;;;78.03;30.80;;;8.40;98.60;;;;;;5052542;28;20067;-73
2021/11/17 09:16:09;;;;;;;74.33;29.30;;;8.30;98.50;;;;;;5053916;28;20048;-73
2021/11/17 09:18:37;;;;;;;80.93;31.87;;;8.40;98.50;;;;;;5037182;28;20374;-73
2021/11/17 09:21:06;;;;;;;76.67;31.43;;;8.30;98.50;;;;;;5053669;28;20474;-72
2021/11/17 09:23:32;;;;;;;87.33;34.10;;;8.40;98.60;;;;;;5055033;28;20461;-74
2021/11/17 09:26:00;;;;;;;86.80;32.93;;;8.40;98.60;;;;;;5053688;28;20021;-75
2021/11/17 09:28:28;;;;;;;90.80;33.37;;;8.40;98.70;;;;;;5053643;28;20025;-75
2021/11/17 09:30:54;;;;;;;83.40;33.10;;;8.40;98.70;;;;;;5054355;28;20484;-75
2021/11/17 09:33:23;;;;;;;90.87;35.83;;;8.40;98.70;;;;;;5054154;28;20041;-75
2021/11/17 09:35:48;;;;;;;86.97;34.93;;;8.50;98.80;;;;;;5054059;28;20578;-76
2021/11/17 09:38:16;;;;;;;91.90;36.37;;;8.50;98.80;;;;;;5053445;28;20033;-75
2021/11/17 09:40:44;;;;;;;96.50;35.10;;;8.50;98.80;;;;;;5054922;28;20033;-75
2021/11/17 09:43:15;;;;;;;83.53;33.33;;;8.50;98.90;;;;;;5054796;28;20103;-75
2021/11/17 09:45:42;;;;;;;81.63;33.40;;;8.50;98.90;;;;;;5054567;28;20075;-75
2021/11/17 09:48:16;;;;;;;73.53;30.83;;;8.50;98.90;;;;;;5052494;28;20056;-75
2021/11/17 09:50:45;;;;;;;;;;;8.60;99.00;;;;;;5054899;28;20025;-75
2021/11/17 09:53:22;;;;;;;81.17;31.03;;;8.60;99.00;;;;;;5054338;28;19904;-75
2021/11/17 09:56:01;;;;;;;80.70;31.93;;;8.60;99.00;;;;;;5053007;28;20120;-75
2021/11/17 09:58:31;;;;;;;70.07;29.87;;;8.60;99.00;;;;;;5053043;28;20053;-75
2021/11/17 10:01:21;;;;;;;71.47;30.67;;;8.70;99.10;;;;;;5054134;28;20025;-75
2021/11/17 10:03:49;;;;;;;75.37;33.40;;;8.70;99.10;;;;;;5054065;28;20100;-75
2021/11/17 10:09:31;;;;;;;75.63;30.97;;;8.80;99.20;;;;;;5054016;28;20052;-75
2021/11/17 10:15:00;;;;;;;85.97;35.20;;;8.90;99.30;;;;;;5053868;28;20032;-75
2021/11/17 10:17:46;;;;;;;96.47;38.37;;;8.90;99.30;;;;;;5053839;28;20025;-75
2021/11/17 10:20:29;;;;;;;101.63;38.30;;;8.90;99.40;;;;;;5053770;28;20135;-75
2021/11/17 10:23:06;;;;;;;94.80;37.73;;;8.90;99.50;;;;;;5053861;28;20021;-75
2021/11/17 10:26:06;;;;;;;100.50;40.07;;;9.00;99.40;;;;;;5053658;28;20104;-72
2021/11/17 10:28:47;;;;;;;102.47;40.00;;;9.00;99.60;;;;;;5053360;28;20028;-74
2021/11/17 10:31:24;;;;;;;108.43;43.00;;;9.00;99.70;;;;;;5051671;28;20389;-75
2021/11/17 10:33:58;;;;;;;103.03;39.43;;;9.00;99.70;;;;;;5053581;28;20412;-74
2021/11/17 10:36:59;;;;;;;114.25;41.47;;;9.00;99.80;;;;;;5053392;28;20437;-74
2021/11/17 10:39:46;;;;;;;116.00;43.27;;;9.10;99.80;;;;;;5052574;28;20076;-74
2021/11/17 10:42:18;;;;;;;107.87;41.50;;;9.10;99.90;;;;;;5052233;28;20032;-74
2021/11/17 10:44:55;;;;;;;110.00;41.50;;;9.10;99.90;;;;;;5053424;28;20045;-74
2021/11/17 10:47:26;;;;;;;116.67;46.83;;;9.10;99.90;;;;;;5052168;28;20029;-74
2021/11/17 10:50:18;;;;;;;115.97;43.97;;;9.10;99.90;;;;;;5053372;28;20029;-74
2021/11/17 10:53:15;;;;;;;107.43;39.97;;;9.10;99.90;;;;;;5053247;28;20029;-74
2021/11/17 10:55:50;;;;;;;108.93;40.77;;;9.20;99.90;;;;;;5044960;28;20037;-74
2021/11/17 10:58:29;;;;;;;102.30;38.83;;;9.30;99.90;;;;;;5052830;28;20388;-74
2021/11/17 11:01:04;;;;;;;110.83;40.93;;;9.30;99.90;;;;;;5051755;28;20025;-74
2021/11/17 11:03:36;;;;;;;116.87;42.77;;;9.30;99.90;;;;;;5052036;28;20017;-74
2021/11/17 11:06:20;;;;;;;105.90;40.90;;;9.40;99.90;;;;;;5053024;28;20036;-74
2021/11/17 11:09:03;;;;;;;94.82;39.17;;;9.50;99.90;;;;;;5052768;28;20029;-74
2021/11/17 11:11:30;;;;;;;102.67;39.90;;;9.50;99.90;;;;;;5051326;28;20302;-73
2021/11/17 11:14:06;;;;;;;113.20;41.33;;;9.60;99.90;;;;;;5052923;28;20025;-73
2021/11/17 11:16:46;;;;;;;94.80;39.40;;;9.60;99.90;;;;;;5052834;28;20033;-74
2021/11/17 11:19:15;;;;;;;97.40;40.40;;;9.70;99.90;;;;;;5051538;28;20060;-74
2021/11/17 11:21:43;;;;;;;98.60;39.80;;;9.70;99.90;;;;;;5052880;28;20025;-74
2021/11/17 11:24:12;;;;;;;91.73;37.27;;;9.80;99.90;;;;;;5052677;28;20017;-74
2021/11/17 11:26:59;;;;;;;85.93;38.13;;;9.90;99.90;;;;;;5052170;28;20021;-73
2021/11/17 11:29:38;;;;;;;82.93;34.13;;;10.00;99.90;;;;;;5052712;28;20103;-74
2021/11/17 11:32:14;;;;;;;78.97;35.37;;;10.10;99.90;;;;;;5052810;28;20036;-75
2021/11/17 11:35:08;;;;;;;84.17;36.80;;;10.10;99.90;;;;;;5052508;28;20489;-74
2021/11/17 11:37:33;;;;;;;84.77;35.90;;;10.20;99.90;;;;;;5047964;28;20045;-74
2021/11/17 11:40:05;;;;;;;81.97;35.30;;;10.30;99.90;;;;;;5049657;28;20406;-75
2021/11/17 11:43:04;;;;;;;78.80;35.40;;;10.30;99.90;;;;;;5052206;28;20025;-74
2021/11/17 11:45:30;;;;;;;72.10;31.33;;;10.40;99.90;;;;;;5050578;28;20037;-74
2021/11/17 11:47:59;;;;;;;82.47;36.63;;;10.40;99.90;;;;;;5050432;28;20044;-74
2021/11/17 11:50:31;;;;;;;67.17;32.10;;;10.50;99.90;;;;;;5051267;28;20489;-74
2021/11/17 11:53:00;;;;;;;80.25;34.33;;;10.60;99.90;;;;;;5052911;28;20104;-76
2021/11/17 11:55:46;;;;;;;67.45;31.98;;;10.80;99.90;;;;;;5053271;28;20017;-76
2021/11/17 11:58:23;;;;;;;69.07;34.47;;;11.00;99.90;;;;;;5048005;28;20068;-76
2021/11/17 12:01:18;;;;;;;70.00;32.40;;;11.10;99.90;;;;;;5047554;28;20051;-76
2021/11/17 12:03:47;;;;;;;;;;;11.10;99.70;;;;;;5044331;28;20017;-76
2021/11/17 12:06:21;;;;;;;68.55;32.85;;;11.10;99.70;;;;;;5050766;28;19904;-76
2021/11/17 12:08:48;;;;;;;66.60;31.42;;;11.20;99.80;;;;;;5051293;28;20025;-75
2021/11/17 12:11:21;;;;;;;65.63;31.33;;;11.20;99.60;;;;;;5053013;28;20116;-75
2021/11/17 12:13:55;;;;;;;67.05;32.28;;;11.20;99.50;;;;;;5056369;28;20082;-76
2021/11/17 12:16:25;;;;;;;73.03;32.22;;;11.20;99.60;;;;;;5036373;28;20045;-75
2021/11/17 12:18:54;;;;;;;63.15;29.52;;;11.40;99.70;;;;;;5036173;28;20026;-75
2021/11/17 12:21:26;;;;;;;63.15;29.80;;;11.50;99.70;;;;;;5034752;28;20076;-75
2021/11/17 12:24:07;;;;;;;62.40;29.00;;;11.60;99.70;;;;;;5036031;28;20021;-76
2021/11/17 12:26:34;;;;;;;58.67;28.60;;;11.70;99.50;;;;;;5036074;28;20079;-74
2021/11/17 12:29:17;;;;;;;56.42;29.50;;;11.70;99.30;;;;;;5034908;28;20048;-75
2021/11/17 12:31:56;;;;;;;48.97;25.83;;;11.90;99.60;;;;;;5036025;28;20028;-76
2021/11/17 12:34:30;;;;;;;53.20;27.38;;;12.20;99.70;;;;;;5035810;28;20040;-76
2021/11/17 12:37:01;;;;;;;50.90;26.90;;;12.40;99.70;;;;;;5035976;28;20059;-76
2021/11/17 12:39:56;;;;;;;57.80;27.30;;;12.60;99.10;;;;;;5036177;28;20504;-76
2021/11/17 12:42:34;;;;;;;54.00;27.52;;;12.70;98.80;;;;;;5035721;28;20385;-76
2021/11/17 12:45:18;;;;;;;46.97;25.92;;;12.80;98.20;;;;;;5037318;28;20021;-76
2021/11/17 12:48:00;;;;;;;52.67;25.63;;;12.80;97.90;;;;;;5054910;28;20017;-76
2021/11/17 12:50:34;;;;;;;49.92;26.52;;;12.70;97.70;;;;;;5054341;28;20009;-76
2021/11/17 12:53:13;;;;;;;54.67;26.58;;;12.70;97.50;;;;;;5054014;28;20017;-76
2021/11/17 12:56:03;;;;;;;57.92;28.08;;;12.50;97.40;;;;;;5054470;28;20036;-76
2021/11/17 12:58:33;;;;;;;50.50;25.75;;;12.40;97.40;;;;;;5052539;28;20056;-76
2021/11/17 13:01:29;;;;;;;50.25;26.35;;;12.40;97.40;;;;;;5053826;28;20128;-76
2021/11/17 13:04:00;;;;;;;51.63;24.77;;;12.30;97.30;;;;;;5054025;28;20033;-76
2021/11/17 13:06:40;;;;;;;53.45;27.15;;;12.30;97.20;;;;;;5055133;28;20033;-76
2021/11/17 13:09:23;;;;;;;53.88;26.42;;;12.20;97.30;;;;;;5055290;28;20021;-76
2021/11/17 13:12:15;;;;;;;46.60;23.05;;;12.20;97.30;;;;;;5053851;28;20021;-75
2021/11/17 13:14:44;;;;;;;44.88;22.73;;;12.20;97.40;;;;;;5053508;28;20420;-75
2021/11/17 13:17:11;;;;;;;41.35;22.25;;;12.20;97.50;;;;;;5054637;28;20076;-74
2021/11/17 13:19:56;;;;;;;46.50;22.13;;;12.20;97.40;;;;;;5054672;28;20052;-74
2021/11/17 13:22:25;;;;;;;42.72;20.55;;;12.30;97.30;;;;;;5051618;28;20060;-75
2021/11/17 13:24:53;;;;;;;40.58;20.70;;;12.30;97.50;;;;;;5054593;28;20105;-75
2021/11/17 13:27:34;;;;;;;38.55;20.08;;;12.40;97.50;;;;;;5053260;28;20017;-75
2021/11/17 13:30:12;;;;;;;36.83;18.10;;;12.50;97.50;;;;;;5056353;28;20035;-75
2021/11/17 13:32:43;;;;;;;32.67;16.08;;;13.00;98.50;;;;;;5052933;28;20473;-75
2021/11/17 13:35:27;;;;;;;26.42;14.48;;;13.60;99.00;;;;;;5054485;28;20048;-76
2021/11/17 13:38:17;;;;;;;25.88;13.57;;;14.40;98.90;;;;;;5054803;28;20033;-76
2021/11/17 13:40:45;;;;;;;27.52;12.95;;;14.90;97.70;;;;;;5054730;28;20472;-76
2021/11/17 13:43:12;;;;;;;21.98;11.00;;;15.00;96.70;;;;;;5054524;28;20059;-75
2021/11/17 13:45:39;;;;;;;22.50;10.20;;;15.40;96.30;;;;;;5053257;28;20029;-73
2021/11/17 13:48:06;;;;;;;18.02;10.10;;;15.70;95.30;;;;;;5054367;28;20076;-73
2021/11/17 13:50:35;;;;;;;23.63;10.15;;;15.70;94.30;;;;;;5052670;28;20025;-73
2021/11/17 13:53:03;;;;;;;18.40;8.15;;;15.80;93.10;;;;;;5054082;28;20025;-74
2021/11/17 13:55:33;;;;;;;22.15;7.40;;;15.90;92.70;;;;;;5052940;28;20025;-73
2021/11/17 13:57:58;;;;;;;16.63;6.85;;;15.90;92.00;;;;;;5054265;28;20029;-73
2021/11/17 14:00:25;;;;;;;17.08;6.03;;;15.90;91.60;;;;;;5052089;28;20040;-73
2021/11/17 14:02:53;;;;;;;16.45;6.65;;;15.80;90.50;;;;;;5052676;28;20032;-73
2021/11/17 14:05:20;;;;;;;20.25;6.53;;;15.70;90.00;;;;;;5054199;28;20150;-74
2021/11/17 14:07:47;;;;;;;17.70;5.50;;;15.40;89.30;;;;;;5054136;28;20090;-74
2021/11/17 14:10:13;;;;;;;18.70;4.95;;;15.20;88.90;;;;;;5053965;28;20036;-74
2021/11/17 14:12:40;;;;;;;21.50;5.25;;;15.00;88.80;;;;;;5054096;28;20029;-74
2021/11/17 14:15:07;;;;;;;18.50;4.90;;;14.90;89.20;;;;;;5053438;28;20029;-74
2021/11/17 14:17:34;;;;;;;16.50;4.05;;;14.70;88.70;;;;;;5053293;28;20057;-74
2021/11/17 14:19:59;;;;;;;14.63;3.80;;;14.60;88.70;;;;;;5052089;28;20029;-74
2021/11/17 14:22:25;;;;;;;20.05;4.18;;;14.50;87.90;;;;;;5049459;28;20115;-74
2021/11/17 14:24:56;;;;;;;16.70;4.28;;;14.40;87.60;;;;;;5038320;28;20029;-74
2021/11/17 14:27:23;;;;;;;18.75;4.45;;;14.20;86.90;;;;;;5061740;28;20439;-74
2021/11/17 14:29:52;;;;;;;18.98;3.67;;;14.00;86.70;;;;;;5065629;28;20025;-74
2021/11/17 14:32:39;;;;;;;20.92;3.88;;;13.80;87.10;;;;;;5051900;28;20111;-73
2021/11/17 14:35:07;;;;;;;17.40;3.50;;;13.60;86.80;;;;;;5052768;28;20060;-73
2021/11/17 14:37:38;;;;;;;15.60;3.60;;;13.50;87.10;;;;;;5052593;28;20358;-73
2021/11/17 14:40:05;;;;;;;19.60;3.70;;;13.30;87.20;;;;;;5036359;28;20032;-73
2021/11/17 14:42:31;;;;;;;22.95;3.00;;;13.10;87.70;;;;;;5053366;28;20093;-73
2021/11/17 14:44:56;;;;;;;10.73;2.42;;;13.10;88.40;;;;;;5052140;28;20041;-74
2021/11/17 14:47:22;;;;;;;17.33;2.90;;;13.00;88.30;;;;;;5052293;28;20060;-74
2021/11/17 14:49:48;;;;;;;19.95;3.35;;;13.00;88.50;;;;;;5053367;28;20120;-74
2021/11/17 14:52:21;;;;;;;14.75;3.53;;;12.90;88.20;;;;;;5053471;28;20036;-74
2021/11/17 14:54:52;;;;;;;17.80;3.10;;;12.90;88.30;;;;;;5053403;28;20531;-74
2021/11/17 14:57:20;;;;;;;18.15;3.15;;;12.90;88.30;;;;;;5051875;28;20025;-74
2021/11/17 14:59:45;;;;;;;15.32;2.60;;;12.80;88.00;;;;;;5051921;28;20056;-74
2021/11/17 15:02:15;;;;;;;18.65;3.20;;;12.80;88.30;;;;;;5052749;28;20486;-74
2021/11/17 15:04:40;;;;;;;17.90;2.50;;;12.70;88.20;;;;;;5052903;28;20112;-74
2021/11/17 15:07:10;;;;;;;14.43;2.95;;;12.70;88.10;;;;;;5051465;28;20465;-74
2021/11/17 15:09:37;;;;;;;10.15;2.00;;;12.60;88.20;;;;;;5051840;28;20078;-73
2021/11/17 15:12:16;;;;;;;21.42;2.78;;;12.50;88.10;;;;;;5051731;28;20033;-73
2021/11/17 15:14:42;;;;;;;19.55;3.72;;;12.40;88.10;;;;;;5052730;28;20033;-73
2021/11/17 15:17:09;;;;;;;20.33;3.00;;;12.30;88.10;;;;;;5052925;28;20029;-73
2021/11/17 15:19:35;;;;;;;16.08;2.97;;;12.20;88.30;;;;;;5049583;28;20029;-74
2021/11/17 15:22:03;;;;;;;22.85;3.08;;;12.10;88.50;;;;;;5044678;28;20038;-73
2021/11/17 15:24:33;;;;;;;17.60;2.72;;;12.10;88.80;;;;;;5033045;28;20034;-74
2021/11/17 15:27:02;;;;;;;17.88;2.20;;;11.90;88.90;;;;;;5032810;28;20348;-74
2021/11/17 15:29:28;;;;;;;26.42;2.60;;;11.80;89.20;;;;;;5033245;28;20030;-73
2021/11/17 15:31:54;;;;;;;16.40;2.22;;;11.70;89.30;;;;;;5033925;28;20086;-74
2021/11/17 15:34:20;;;;;;;15.00;2.40;;;11.50;89.50;;;;;;5052404;28;20041;-75
2021/11/17 15:36:45;;;;;;;20.83;2.55;;;11.40;89.80;;;;;;5052205;28;20090;-74
2021/11/17 15:39:11;;;;;;;19.20;3.30;;;11.30;90.00;;;;;;5043077;28;20124;-75
2021/11/17 15:41:40;;;;;;;15.43;2.20;;;11.20;90.10;;;;;;5065042;28;20116;-75
2021/11/17 15:44:08;;;;;;;12.13;3.10;;;11.10;90.30;;;;;;5051972;28;20098;-75
2021/11/17 15:46:37;;;;;;;15.03;2.37;;;11.00;90.40;;;;;;5053191;28;20401;-75